Time;durP1;ratioP1;P1;durP2;ratioP2;P2;SDS_P1;SDS_P2;PMS_P1;PMS_P2;Temp;Humidity;BMP_temperature;BMP_pressure;BME280_temperature;BME280_humidity;BME280_pressure;Samples;Min_cycle;Max_cycle;Signal;HPM_P1;HPM_P2
2023/02/04 00:00:25;;;;;;;1.63;1.10;;;4.90;99.90;;;;;;6270977;23;20403;-54
2023/02/04 00:02:52;;;;;;;1.13;0.97;;;4.90;99.90;;;;;;6271653;23;20398;-60
2023/02/04 00:05:20;;;;;;;5.03;2.30;;;4.80;99.90;;;;;;6270897;23;20398;-59
2023/02/04 00:07:47;;;;;;;1.70;1.43;;;4.80;99.90;;;;;;6270600;23;20412;-58
2023/02/04 00:10:14;;;;;;;2.80;1.50;;;4.70;99.90;;;;;;6270355;23;20423;-53
2023/02/04 00:12:43;;;;;;;1.60;1.33;;;4.60;99.90;;;;;;6270385;23;20473;-55
2023/02/04 00:15:11;;;;;;;2.00;1.33;;;4.50;99.90;;;;;;6270799;23;20453;-53
2023/02/04 00:17:39;;;;;;;1.90;1.10;;;4.50;99.90;;;;;;6272040;23;20443;-57
2023/02/04 00:20:06;;;;;;;2.50;1.80;;;4.40;99.90;;;;;;6272373;23;20427;-56
2023/02/04 00:22:33;;;;;;;2.40;1.40;;;4.30;99.90;;;;;;6272516;23;20395;-56
2023/02/04 00:25:00;;;;;;;5.07;4.10;;;4.30;99.90;;;;;;6272077;23;20450;-55
2023/02/04 00:27:27;;;;;;;1.63;1.37;;;4.20;99.90;;;;;;6272130;23;20403;-54
2023/02/04 00:29:56;;;;;;;13.43;6.73;;;4.20;99.90;;;;;;6271558;23;20407;-55
2023/02/04 00:32:23;;;;;;;4.80;3.63;;;4.20;99.90;;;;;;6272793;23;20446;-55
2023/02/04 00:34:50;;;;;;;11.73;4.03;;;4.20;99.90;;;;;;6272249;23;20454;-56
2023/02/04 00:37:16;;;;;;;2.70;1.07;;;4.20;99.90;;;;;;6272811;23;20395;-56
2023/02/04 00:39:43;;;;;;;3.17;1.37;;;4.20;99.90;;;;;;6273021;22;20426;-67
2023/02/04 00:42:13;;;;;;;1.63;1.10;;;4.20;99.90;;;;;;6272466;23;20422;-55
2023/02/04 00:44:40;;;;;;;2.50;1.40;;;4.20;99.90;;;;;;6272380;23;20457;-55
2023/02/04 00:47:08;;;;;;;2.17;1.40;;;4.20;99.90;;;;;;6271359;23;20403;-52
2023/02/04 00:49:35;;;;;;;1.30;1.10;;;4.20;99.90;;;;;;6271947;23;20407;-57
2023/02/04 00:52:02;;;;;;;2.80;1.43;;;4.10;99.90;;;;;;6272057;23;20435;-56
2023/02/04 00:54:29;;;;;;;1.30;1.10;;;3.90;99.90;;;;;;6271866;23;20423;-58
2023/02/04 00:56:56;;;;;;;1.50;1.30;;;3.80;99.90;;;;;;6271878;23;20383;-56
2023/02/04 00:59:23;;;;;;;2.83;1.40;;;3.80;99.90;;;;;;6272705;23;20403;-55
2023/02/04 01:01:51;;;;;;;2.43;1.87;;;3.70;99.90;;;;;;6272144;23;20395;-57
2023/02/04 01:04:20;;;;;;;1.40;1.03;;;3.70;99.90;;;;;;6271998;23;20471;-57
2023/02/04 01:06:47;;;;;;;1.57;1.27;;;3.60;99.90;;;;;;6272192;23;20467;-55
2023/02/04 01:09:13;;;;;;;2.90;1.10;;;3.60;99.90;;;;;;6272099;23;20403;-57
2023/02/04 01:11:43;;;;;;;4.10;1.87;;;3.60;99.90;;;;;;6260777;23;20461;-58
2023/02/04 01:14:12;;;;;;;2.57;0.87;;;3.50;99.90;;;;;;6270478;23;20399;-57
2023/02/04 01:16:39;;;;;;;2.70;1.13;;;3.60;99.90;;;;;;6271878;23;20422;-56
2023/02/04 01:19:07;;;;;;;4.47;1.63;;;3.60;99.90;;;;;;6272344;23;20375;-57
2023/02/04 01:21:35;;;;;;;3.93;3.20;;;3.60;99.90;;;;;;6272055;23;20407;-56
2023/02/04 01:24:02;;;;;;;1.33;1.00;;;3.60;99.90;;;;;;6272284;23;20410;-59
2023/02/04 01:26:29;;;;;;;1.97;0.97;;;3.50;99.90;;;;;;6272010;23;20455;-56
2023/02/04 01:28:56;;;;;;;1.40;0.90;;;3.50;99.90;;;;;;6271815;23;20407;-56
2023/02/04 01:31:22;;;;;;;1.17;0.90;;;3.50;99.90;;;;;;6270922;23;20423;-57
2023/02/04 01:33:51;;;;;;;1.93;1.00;;;3.40;99.90;;;;;;6271735;23;20403;-55
2023/02/04 01:36:20;;;;;;;7.30;1.60;;;3.40;99.90;;;;;;6271565;23;20438;-57
2023/02/04 01:38:49;;;;;;;8.10;1.47;;;3.40;99.90;;;;;;6272209;23;20410;-55
2023/02/04 01:41:17;;;;;;;1.00;0.70;;;3.40;99.90;;;;;;6271578;23;20391;-55
2023/02/04 01:43:44;;;;;;;1.73;1.10;;;3.40;99.90;;;;;;6271990;23;20411;-58
2023/02/04 01:46:11;;;;;;;1.50;1.13;;;3.40;99.90;;;;;;6271386;23;20411;-62
2023/02/04 01:48:38;;;;;;;4.73;1.20;;;3.40;99.90;;;;;;6272018;23;20380;-59
2023/02/04 01:51:08;;;;;;;2.47;1.07;;;3.40;99.90;;;;;;6271977;23;20427;-60
2023/02/04 01:53:37;;;;;;;3.10;1.40;;;3.40;99.90;;;;;;6271638;23;20380;-56
2023/02/04 01:56:16;;;;;;;2.90;1.80;;;3.40;99.90;;;;;;6271610;22;20431;-58
2023/02/04 01:58:47;;;;;;;3.53;0.97;;;3.50;99.90;;;;;;6271378;23;20427;-56
2023/02/04 02:01:16;;;;;;;3.17;1.20;;;3.50;99.90;;;;;;6271417;23;20388;-54
2023/02/04 02:03:43;;;;;;;2.80;1.47;;;3.40;99.90;;;;;;6271139;23;20403;-56
2023/02/04 02:06:11;;;;;;;2.77;1.57;;;3.40;99.90;;;;;;6271985;23;20423;-57
2023/02/04 02:08:38;;;;;;;1.10;0.90;;;3.40;99.90;;;;;;6271235;23;20486;-59
2023/02/04 02:11:05;;;;;;;7.70;1.57;;;3.50;99.90;;;;;;6271372;23;20424;-57
2023/02/04 02:13:34;;;;;;;2.33;1.40;;;3.50;99.90;;;;;;6272165;23;20403;-52
2023/02/04 02:16:00;;;;;;;1.47;1.00;;;3.50;99.90;;;;;;6262280;23;20427;-57
2023/02/04 02:18:27;;;;;;;5.67;1.40;;;3.50;99.90;;;;;;6268507;23;20411;-61
2023/02/04 02:20:56;;;;;;;2.73;1.20;;;3.60;99.90;;;;;;6272026;23;20461;-53
2023/02/04 02:23:29;;;;;;;1.40;1.23;;;3.60;99.90;;;;;;6272412;23;20395;-59
2023/02/04 02:25:59;;;;;;;2.83;1.33;;;3.60;99.90;;;;;;6271810;23;20434;-59
2023/02/04 02:28:26;;;;;;;1.30;0.80;;;3.60;99.90;;;;;;6271733;23;20403;-55
2023/02/04 02:30:55;;;;;;;1.20;0.90;;;3.70;99.90;;;;;;6271463;23;20431;-56
2023/02/04 02:33:22;;;;;;;1.13;0.80;;;3.70;99.90;;;;;;6271061;23;20450;-59
2023/02/04 02:35:49;;;;;;;2.07;0.90;;;3.70;99.90;;;;;;6270639;23;20407;-57
2023/02/04 02:38:17;;;;;;;1.33;1.07;;;3.70;99.90;;;;;;6271274;23;20407;-58
2023/02/04 02:40:44;;;;;;;2.20;1.50;;;3.70;99.90;;;;;;6270923;23;20434;-58
2023/02/04 02:43:17;;;;;;;1.93;1.03;;;3.70;99.90;;;;;;6271270;23;20409;-59
2023/02/04 02:45:45;;;;;;;1.07;0.90;;;3.70;99.90;;;;;;6271011;23;20427;-54
2023/02/04 02:48:12;;;;;;;2.00;1.13;;;3.70;99.90;;;;;;6271574;23;20398;-59
2023/02/04 02:50:40;;;;;;;3.97;1.40;;;3.70;99.90;;;;;;6271261;23;20423;-62
2023/02/04 02:53:13;;;;;;;1.80;0.97;;;3.60;99.90;;;;;;6271517;23;20427;-60
2023/02/04 02:55:47;;;;;;;3.00;1.37;;;3.60;99.90;;;;;;6271364;23;20423;-58
2023/02/04 02:58:24;;;;;;;1.83;1.10;;;3.60;99.90;;;;;;6271797;23;20439;-59
2023/02/04 03:00:52;;;;;;;5.17;1.10;;;3.60;99.90;;;;;;6271247;23;20449;-62
2023/02/04 03:03:24;;;;;;;0.97;0.73;;;3.60;99.90;;;;;;6271501;23;20396;-54
2023/02/04 03:05:55;;;;;;;4.70;1.40;;;3.50;99.90;;;;;;6271212;23;20431;-55
2023/02/04 03:08:22;;;;;;;1.60;0.90;;;3.50;99.90;;;;;;6270843;23;20388;-59
2023/02/04 03:10:49;;;;;;;4.30;0.80;;;3.40;99.90;;;;;;6270948;23;20494;-58
2023/02/04 03:13:19;;;;;;;1.70;0.93;;;3.40;99.90;;;;;;6266519;23;20909;-55
2023/02/04 03:15:47;;;;;;;2.60;1.27;;;3.40;99.90;;;;;;6262904;23;20426;-60
2023/02/04 03:18:17;;;;;;;1.10;0.77;;;3.30;99.90;;;;;;6271747;23;20426;-65
2023/02/04 03:20:44;;;;;;;1.37;0.90;;;3.30;99.90;;;;;;6271816;23;20846;-53
2023/02/04 03:23:13;;;;;;;1.80;1.13;;;3.30;99.90;;;;;;6271319;23;20390;-58
2023/02/04 03:25:40;;;;;;;4.40;0.83;;;3.20;99.90;;;;;;6270953;22;20438;-59
2023/02/04 03:28:07;;;;;;;1.40;0.93;;;3.20;99.90;;;;;;6270889;23;20379;-57
2023/02/04 03:30:35;;;;;;;1.90;1.00;;;3.30;99.90;;;;;;6270985;23;20418;-58
2023/02/04 03:33:02;;;;;;;3.97;1.37;;;3.20;99.90;;;;;;6270693;23;20422;-57
2023/02/04 03:35:29;;;;;;;1.03;0.70;;;3.20;99.90;;;;;;6270836;23;20419;-59
2023/02/04 03:37:56;;;;;;;2.20;1.00;;;3.10;99.90;;;;;;6270886;23;20383;-54
2023/02/04 03:40:23;;;;;;;2.17;0.90;;;3.10;99.90;;;;;;6271250;23;20395;-63
2023/02/04 03:42:50;;;;;;;2.10;1.30;;;3.10;99.90;;;;;;6272210;23;20419;-63
2023/02/04 03:45:17;;;;;;;1.43;0.83;;;3.10;99.90;;;;;;6271958;23;20399;-59
2023/02/04 03:47:45;;;;;;;2.70;0.80;;;3.10;99.90;;;;;;6270893;23;20407;-56
2023/02/04 03:50:13;;;;;;;6.43;0.80;;;3.10;99.90;;;;;;6270621;23;20386;-56
2023/02/04 03:52:40;;;;;;;5.60;1.23;;;3.00;99.90;;;;;;6271694;23;20443;-61
2023/02/04 03:55:07;;;;;;;1.20;0.70;;;3.00;99.90;;;;;;6272829;23;20394;-58
2023/02/04 03:57:37;;;;;;;1.07;0.70;;;3.00;99.90;;;;;;6273173;23;20386;-57
2023/02/04 04:00:11;;;;;;;1.07;0.87;;;3.00;99.90;;;;;;6273162;23;20423;-64
2023/02/04 04:02:37;;;;;;;3.23;0.87;;;3.00;99.90;;;;;;6272823;23;20427;-66
2023/02/04 04:05:07;;;;;;;5.23;1.20;;;3.00;99.90;;;;;;6272867;23;20418;-61
2023/02/04 04:07:34;;;;;;;3.33;1.30;;;2.90;99.90;;;;;;6273069;23;20490;-58
2023/02/04 04:10:01;;;;;;;1.63;1.03;;;2.90;99.90;;;;;;6272873;23;20406;-59
2023/02/04 04:12:28;;;;;;;3.63;0.90;;;2.90;99.90;;;;;;6272137;23;20453;-57
2023/02/04 04:14:55;;;;;;;0.90;0.60;;;2.90;99.90;;;;;;6272548;23;20407;-58
2023/02/04 04:17:24;;;;;;;6.73;1.33;;;2.90;99.90;;;;;;6272725;23;20407;-57
2023/02/04 04:19:52;;;;;;;2.40;1.10;;;2.90;99.90;;;;;;6272731;23;20399;-57
2023/02/04 04:22:23;;;;;;;1.17;0.73;;;2.90;99.90;;;;;;6272208;23;20403;-59
2023/02/04 04:24:50;;;;;;;5.60;0.70;;;2.90;99.90;;;;;;6271982;23;20388;-54
2023/02/04 04:27:17;;;;;;;2.70;1.30;;;3.00;99.90;;;;;;6272915;23;20407;-57
2023/02/04 04:29:43;;;;;;;1.20;0.77;;;3.10;99.90;;;;;;6273193;23;20413;-57
2023/02/04 04:32:13;;;;;;;1.27;0.80;;;3.10;99.90;;;;;;6271939;23;20439;-56
2023/02/04 04:34:41;;;;;;;1.63;0.87;;;3.10;99.90;;;;;;6272482;23;20430;-59
2023/02/04 04:37:08;;;;;;;2.67;0.80;;;3.20;99.90;;;;;;6272163;23;20433;-57
2023/02/04 04:39:36;;;;;;;3.33;0.90;;;3.20;99.90;;;;;;6272396;23;20474;-57
2023/02/04 04:42:04;;;;;;;1.47;0.90;;;3.30;99.90;;;;;;6272434;23;20826;-54
2023/02/04 04:44:31;;;;;;;2.20;0.80;;;3.30;99.90;;;;;;6272842;23;20383;-60
2023/02/04 04:46:58;;;;;;;3.10;0.90;;;3.30;99.90;;;;;;6272190;23;20441;-59
2023/02/04 04:49:25;;;;;;;1.40;0.90;;;3.30;99.90;;;;;;6272707;23;20410;-58
2023/02/04 04:51:52;;;;;;;2.70;0.80;;;3.30;99.90;;;;;;6271800;23;20423;-58
2023/02/04 04:54:18;;;;;;;7.67;1.37;;;3.20;99.90;;;;;;6272545;23;20403;-59
2023/02/04 04:56:47;;;;;;;1.20;0.90;;;3.20;99.90;;;;;;6272483;23;20438;-58
2023/02/04 04:59:13;;;;;;;5.03;1.13;;;3.20;99.90;;;;;;6260053;23;20371;-57
2023/02/04 05:01:40;;;;;;;2.67;1.60;;;3.20;99.90;;;;;;6272480;23;20422;-56
2023/02/04 05:04:07;;;;;;;1.20;0.60;;;3.20;99.90;;;;;;6273236;22;20391;-55
2023/02/04 05:06:34;;;;;;;1.57;0.77;;;3.20;99.90;;;;;;6274318;23;20411;-57
2023/02/04 05:09:04;;;;;;;1.73;0.93;;;3.20;99.90;;;;;;6274004;23;20394;-56
2023/02/04 05:11:33;;;;;;;3.73;0.70;;;3.20;99.90;;;;;;6274114;22;20423;-57
2023/02/04 05:14:02;;;;;;;1.30;0.80;;;3.10;99.90;;;;;;6273453;23;20450;-59
2023/02/04 05:16:29;;;;;;;1.23;0.80;;;3.10;99.90;;;;;;6273252;23;20411;-60
2023/02/04 05:18:55;;;;;;;1.10;0.70;;;3.10;99.90;;;;;;6273356;23;20379;-55
2023/02/04 05:21:22;;;;;;;1.50;0.97;;;3.10;99.90;;;;;;6273235;23;20387;-57
2023/02/04 05:23:49;;;;;;;2.33;1.00;;;3.10;99.90;;;;;;6273795;23;20376;-61
2023/02/04 05:26:18;;;;;;;1.20;0.90;;;3.00;99.90;;;;;;6273735;22;20414;-55
2023/02/04 05:28:46;;;;;;;3.93;0.80;;;3.00;99.90;;;;;;6273871;23;20457;-55
2023/02/04 05:31:15;;;;;;;3.23;0.80;;;3.00;99.90;;;;;;6274078;23;20395;-59
2023/02/04 05:33:42;;;;;;;2.73;0.80;;;2.90;99.90;;;;;;6273943;23;20439;-56
2023/02/04 05:36:08;;;;;;;2.10;0.80;;;2.90;99.90;;;;;;6262039;23;20379;-58
2023/02/04 05:38:37;;;;;;;3.57;1.00;;;2.90;99.90;;;;;;6272046;23;20421;-56
2023/02/04 05:41:04;;;;;;;6.67;1.13;;;2.90;99.90;;;;;;6272284;23;20400;-58
2023/02/04 05:43:31;;;;;;;1.00;0.70;;;2.90;99.90;;;;;;6272231;23;20415;-61
2023/02/04 05:45:58;;;;;;;1.50;0.83;;;2.80;99.90;;;;;;6272115;23;20418;-61
2023/02/04 05:48:26;;;;;;;4.57;1.33;;;2.80;99.90;;;;;;6272208;23;20423;-57
2023/02/04 05:50:53;;;;;;;1.73;0.90;;;2.80;99.90;;;;;;6271906;23;20406;-63
2023/02/04 05:53:20;;;;;;;1.03;0.80;;;2.80;99.90;;;;;;6272181;23;20439;-68
2023/02/04 05:55:47;;;;;;;1.40;1.00;;;2.80;99.90;;;;;;6272769;23;20395;-63
2023/02/04 05:58:14;;;;;;;1.70;0.83;;;2.70;99.90;;;;;;6271457;23;20427;-56
2023/02/04 06:00:40;;;;;;;1.00;0.80;;;2.70;99.90;;;;;;6268623;23;20406;-58
2023/02/04 06:03:07;;;;;;;5.20;1.23;;;2.70;99.90;;;;;;6263534;23;20475;-57
2023/02/04 06:05:36;;;;;;;3.23;1.43;;;2.70;99.90;;;;;;6270931;23;20406;-60
2023/02/04 06:08:03;;;;;;;9.23;2.40;;;2.70;99.90;;;;;;6272234;23;20427;-56
2023/02/04 06:10:30;;;;;;;6.47;1.20;;;2.70;99.90;;;;;;6271971;23;20410;-58
2023/02/04 06:12:57;;;;;;;1.70;0.90;;;2.60;99.90;;;;;;6271352;23;20447;-58
2023/02/04 06:15:23;;;;;;;1.47;0.80;;;2.60;99.90;;;;;;6270530;23;20431;-57
2023/02/04 06:17:52;;;;;;;3.10;1.77;;;2.60;99.90;;;;;;6271050;23;20426;-58
2023/02/04 06:20:19;;;;;;;1.20;0.80;;;2.60;99.90;;;;;;6270811;23;20399;-58
2023/02/04 06:22:50;;;;;;;1.93;0.80;;;2.60;99.90;;;;;;6270990;23;20423;-55
2023/02/04 06:25:17;;;;;;;8.07;3.73;;;2.60;99.90;;;;;;6271120;23;20715;-57
2023/02/04 06:27:44;;;;;;;1.83;0.97;;;2.50;99.90;;;;;;6270931;23;20430;-56
2023/02/04 06:30:12;;;;;;;1.10;0.90;;;2.50;99.90;;;;;;6271188;23;20470;-56
2023/02/04 06:32:39;;;;;;;8.40;1.50;;;2.60;99.90;;;;;;6271034;23;20427;-55
2023/02/04 06:35:06;;;;;;;2.77;0.97;;;2.60;99.90;;;;;;6270881;23;20411;-53
2023/02/04 06:37:33;;;;;;;1.43;1.00;;;2.60;99.90;;;;;;6271582;23;20423;-57
2023/02/04 06:40:02;;;;;;;1.27;0.93;;;2.50;99.90;;;;;;6271154;23;20414;-57
2023/02/04 06:42:28;;;;;;;1.00;0.90;;;2.50;99.90;;;;;;6271040;23;20481;-60
2023/02/04 06:44:55;;;;;;;1.10;0.90;;;2.50;99.90;;;;;;6270733;23;20421;-64
2023/02/04 06:47:22;;;;;;;3.37;1.27;;;2.50;99.90;;;;;;6271298;23;20419;-62
2023/02/04 06:49:49;;;;;;;5.90;1.37;;;2.50;99.90;;;;;;6265546;23;20414;-66
2023/02/04 06:52:18;;;;;;;1.77;0.97;;;2.50;99.90;;;;;;6266397;23;20404;-60
2023/02/04 06:54:45;;;;;;;1.70;1.00;;;2.50;99.90;;;;;;6271627;23;20427;-58
2023/02/04 06:57:14;;;;;;;1.83;1.37;;;2.50;99.90;;;;;;6271518;23;20387;-57
2023/02/04 06:59:42;;;;;;;3.10;0.93;;;2.50;99.90;;;;;;6271080;23;20407;-58
2023/02/04 07:02:11;;;;;;;1.70;1.10;;;2.50;99.90;;;;;;6270419;23;20838;-62
2023/02/04 07:04:40;;;;;;;3.50;1.10;;;2.50;99.90;;;;;;6271069;23;20405;-62
2023/02/04 07:07:07;;;;;;;3.00;0.87;;;2.40;99.90;;;;;;6271304;23;20398;-56
2023/02/04 07:09:34;;;;;;;3.20;0.90;;;2.40;99.90;;;;;;6272045;23;20413;-56
2023/02/04 07:12:01;;;;;;;2.40;1.13;;;2.40;99.90;;;;;;6271375;23;20395;-56
2023/02/04 07:14:29;;;;;;;2.63;1.23;;;2.40;99.90;;;;;;6270778;23;20430;-58
2023/02/04 07:16:57;;;;;;;6.00;1.57;;;2.50;99.90;;;;;;6270854;23;20408;-54
2023/02/04 07:19:24;;;;;;;1.77;1.20;;;2.50;99.90;;;;;;6271023;23;20409;-57
2023/02/04 07:21:53;;;;;;;1.67;1.27;;;2.50;99.90;;;;;;6271325;23;20419;-56
2023/02/04 07:24:20;;;;;;;1.60;1.07;;;2.50;99.90;;;;;;6258740;23;20414;-59
2023/02/04 07:26:49;;;;;;;1.93;1.20;;;2.50;99.90;;;;;;6270386;23;20401;-57
2023/02/04 07:29:16;;;;;;;5.03;1.90;;;2.50;99.90;;;;;;6270639;23;20651;-56
2023/02/04 07:31:44;;;;;;;10.60;1.00;;;2.50;99.90;;;;;;6271024;23;20450;-56
2023/02/04 07:34:12;;;;;;;1.57;0.80;;;2.60;99.90;;;;;;6270353;23;20431;-60
2023/02/04 07:36:39;;;;;;;1.93;1.13;;;2.60;99.90;;;;;;6271234;23;20462;-56
2023/02/04 07:39:06;;;;;;;1.53;1.20;;;2.60;99.90;;;;;;6270834;23;20427;-54
2023/02/04 07:44:10;;;;;;;3.47;1.40;;;2.70;99.90;;;;;;6244466;22;20436;-56
2023/02/04 07:46:37;;;;;;;2.37;1.03;;;2.70;99.90;;;;;;6270216;23;20394;-55
2023/02/04 07:49:05;;;;;;;5.63;1.50;;;2.70;99.90;;;;;;6259247;23;20433;-54
2023/02/04 07:51:32;;;;;;;3.13;1.10;;;2.70;99.90;;;;;;6273770;22;20387;-58
2023/02/04 07:54:02;;;;;;;1.77;1.03;;;2.70;99.90;;;;;;6273725;22;20430;-55
2023/02/04 07:56:30;;;;;;;1.73;1.00;;;2.70;99.90;;;;;;6273772;22;20386;-55
2023/02/04 07:58:57;;;;;;;2.17;1.00;;;2.70;99.90;;;;;;6273664;22;20403;-58
2023/02/04 08:01:23;;;;;;;3.00;1.00;;;2.70;99.90;;;;;;6273794;22;20387;-54
2023/02/04 08:03:50;;;;;;;1.80;0.90;;;2.80;99.90;;;;;;6273759;22;20419;-54
2023/02/04 08:06:18;;;;;;;4.67;1.10;;;2.80;99.90;;;;;;6273850;22;20368;-58
2023/02/04 08:08:48;;;;;;;1.40;1.10;;;2.80;99.90;;;;;;6273844;22;20405;-54
2023/02/04 08:11:15;;;;;;;2.70;1.30;;;2.90;99.90;;;;;;6273546;22;20387;-52
2023/02/04 08:13:42;;;;;;;1.93;1.20;;;2.90;99.90;;;;;;6273603;22;20465;-54
2023/02/04 08:16:11;;;;;;;2.13;1.63;;;2.90;99.90;;;;;;6273700;22;20382;-58
2023/02/04 08:18:38;;;;;;;2.00;1.40;;;2.90;99.90;;;;;;6273606;22;20402;-53
2023/02/04 08:21:06;;;;;;;4.60;1.47;;;3.00;99.90;;;;;;6273763;22;20378;-56
2023/02/04 08:23:40;;;;;;;2.60;1.37;;;2.90;99.90;;;;;;6273505;22;20399;-57
2023/02/04 08:26:10;;;;;;;8.93;1.47;;;3.00;99.90;;;;;;6273651;22;20370;-55
2023/02/04 08:28:37;;;;;;;3.43;1.23;;;3.00;99.90;;;;;;6273428;22;20403;-57
2023/02/04 08:31:04;;;;;;;1.83;1.23;;;3.10;99.90;;;;;;6273621;22;20514;-60
2023/02/04 08:33:37;;;;;;;3.13;1.10;;;3.10;99.90;;;;;;6273449;22;20430;-57
2023/02/04 08:36:04;;;;;;;7.60;1.50;;;3.10;99.90;;;;;;6273542;22;20385;-50
2023/02/04 08:38:31;;;;;;;1.30;0.90;;;3.10;99.90;;;;;;6274785;22;20395;-53
2023/02/04 08:40:59;;;;;;;2.70;1.10;;;3.10;99.90;;;;;;6275482;22;20462;-59
2023/02/04 08:43:26;;;;;;;1.87;1.43;;;3.20;99.90;;;;;;6275422;22;20459;-55
2023/02/04 08:45:56;;;;;;;1.93;1.43;;;3.20;99.90;;;;;;6275268;22;20407;-59
2023/02/04 08:48:22;;;;;;;3.67;0.90;;;3.20;99.90;;;;;;6275306;22;20383;-55
2023/02/04 08:50:49;;;;;;;2.10;1.30;;;3.30;99.90;;;;;;6275490;22;20371;-56
2023/02/04 08:53:16;;;;;;;2.30;1.00;;;3.40;99.90;;;;;;6275271;22;20376;-55
2023/02/04 08:55:43;;;;;;;2.60;1.77;;;3.40;99.90;;;;;;6275325;22;20385;-60
2023/02/04 08:58:11;;;;;;;4.50;1.10;;;3.40;99.90;;;;;;6275161;22;20443;-57
2023/02/04 09:00:38;;;;;;;4.57;1.10;;;3.50;99.90;;;;;;6275351;22;20384;-56
2023/02/04 09:03:05;;;;;;;1.90;1.20;;;3.60;99.90;;;;;;6275125;22;20394;-56
2023/02/04 09:05:32;;;;;;;1.47;1.10;;;3.60;99.90;;;;;;6275078;22;20383;-54
2023/02/04 09:07:59;;;;;;;2.20;0.90;;;3.60;99.90;;;;;;6275064;22;20372;-55
2023/02/04 09:10:27;;;;;;;1.40;1.10;;;3.70;99.90;;;;;;6274931;22;20395;-53
2023/02/04 09:12:54;;;;;;;4.20;1.20;;;3.80;99.90;;;;;;6275127;22;20564;-56
2023/02/04 09:15:23;;;;;;;1.93;1.20;;;3.80;99.90;;;;;;6275084;22;20445;-56
2023/02/04 09:17:52;;;;;;;1.90;1.30;;;3.90;99.90;;;;;;6275058;22;20393;-55
2023/02/04 09:20:20;;;;;;;3.10;1.17;;;3.90;99.90;;;;;;6274961;22;20399;-54
2023/02/04 09:22:49;;;;;;;12.20;3.77;;;4.00;99.90;;;;;;6274841;22;20394;-56
2023/02/04 09:25:16;;;;;;;10.40;1.70;;;4.00;99.90;;;;;;6275030;22;20371;-54
2023/02/04 09:27:42;;;;;;;3.13;1.93;;;4.10;99.90;;;;;;6274992;22;20416;-50
2023/02/04 09:30:10;;;;;;;2.70;1.07;;;4.10;99.90;;;;;;6274850;22;20406;-60
2023/02/04 09:32:38;;;;;;;4.03;1.37;;;4.20;99.90;;;;;;6274993;22;20375;-57
2023/02/04 09:35:06;;;;;;;1.80;1.30;;;4.30;99.90;;;;;;6274854;22;20438;-57
2023/02/04 09:37:32;;;;;;;1.63;0.90;;;4.40;99.90;;;;;;6274870;22;20399;-60
2023/02/04 09:39:59;;;;;;;3.00;1.33;;;4.50;99.90;;;;;;6274705;22;20399;-52
2023/02/04 09:42:27;;;;;;;2.03;1.30;;;4.70;99.90;;;;;;6274764;22;20387;-50
2023/02/04 09:44:53;;;;;;;1.80;1.33;;;4.90;99.90;;;;;;6274738;22;20423;-54
2023/02/04 09:47:23;;;;;;;3.47;1.33;;;5.10;99.90;;;;;;6274627;22;20371;-59
2023/02/04 09:49:52;;;;;;;2.23;1.00;;;5.30;99.90;;;;;;6274684;22;20430;-57
2023/02/04 09:52:23;;;;;;;3.50;1.43;;;5.40;99.90;;;;;;6274628;22;20383;-58
2023/02/04 09:54:50;;;;;;;2.60;1.40;;;5.80;99.90;;;;;;6274532;22;20438;-59
2023/02/04 09:57:19;;;;;;;2.83;1.10;;;6.70;99.90;;;;;;6274643;22;20385;-58
2023/02/04 09:59:49;;;;;;;2.13;1.73;;;7.50;99.90;;;;;;6274429;22;20400;-56
2023/02/04 10:02:23;;;;;;;1.70;1.30;;;8.40;99.90;;;;;;6274225;22;20390;-54
2023/02/04 10:04:56;;;;;;;7.03;1.43;;;9.40;99.90;;;;;;6274440;22;20395;-57
2023/02/04 10:07:25;;;;;;;1.60;1.13;;;9.40;99.90;;;;;;6274445;22;20395;-55
2023/02/04 10:09:53;;;;;;;5.73;1.77;;;9.60;99.90;;;;;;6274276;22;20445;-57
2023/02/04 10:12:21;;;;;;;4.20;1.10;;;10.50;99.90;;;;;;6274414;22;20387;-54
2023/02/04 10:14:48;;;;;;;1.10;0.80;;;11.50;99.90;;;;;;6274204;22;20438;-58
2023/02/04 10:17:18;;;;;;;1.70;1.10;;;12.00;99.90;;;;;;6274365;22;20387;-59
2023/02/04 10:19:45;;;;;;;1.70;1.37;;;12.60;99.90;;;;;;6274228;22;20403;-54
2023/02/04 10:22:18;;;;;;;5.40;1.90;;;13.00;98.50;;;;;;6274418;22;20403;-57
2023/02/04 10:24:45;;;;;;;1.57;1.10;;;13.40;96.10;;;;;;6274367;22;20408;-54
2023/02/04 10:27:14;;;;;;;3.60;1.87;;;13.40;94.70;;;;;;6274255;22;20383;-53
2023/02/04 10:29:41;;;;;;;2.77;1.40;;;13.60;93.10;;;;;;6273977;22;20430;-55
2023/02/04 10:32:27;;;;;;;8.43;2.30;;;13.50;92.20;;;;;;6274000;22;20383;-54
2023/02/04 10:34:58;;;;;;;2.10;1.67;;;13.30;92.40;;;;;;6273916;22;20438;-58
2023/02/04 10:37:29;;;;;;;3.17;1.30;;;12.40;93.00;;;;;;6273975;22;20501;-54
2023/02/04 10:39:56;;;;;;;3.07;1.30;;;11.60;95.50;;;;;;6273976;22;20395;-53
2023/02/04 10:42:25;;;;;;;4.73;1.17;;;10.60;97.70;;;;;;6274096;23;20367;-56
2023/02/04 10:44:53;;;;;;;1.60;1.30;;;9.60;99.90;;;;;;6273925;22;20407;-60
2023/02/04 10:47:22;;;;;;;1.30;1.00;;;8.80;99.90;;;;;;6273989;22;20429;-56
2023/02/04 10:49:55;;;;;;;3.33;1.33;;;8.20;99.90;;;;;;6274012;22;20404;-59
2023/02/04 10:52:24;;;;;;;1.00;0.90;;;8.30;99.90;;;;;;6274011;22;20392;-53
2023/02/04 10:54:52;;;;;;;1.80;1.30;;;8.90;99.90;;;;;;6273948;22;20449;-53
2023/02/04 10:57:23;;;;;;;1.40;1.10;;;9.20;99.90;;;;;;6273826;22;20387;-56
2023/02/04 10:59:51;;;;;;;1.90;0.90;;;9.30;99.90;;;;;;6273629;22;20379;-52
2023/02/04 11:02:40;;;;;;;2.30;1.17;;;9.00;99.90;;;;;;6273656;22;20406;-49
2023/02/04 11:05:13;;;;;;;1.70;1.17;;;8.80;99.90;;;;;;6273802;22;20410;-58
2023/02/04 11:07:40;;;;;;;1.53;0.83;;;8.70;99.90;;;;;;6273879;22;20386;-51
2023/02/04 11:10:13;;;;;;;1.20;0.70;;;8.40;99.90;;;;;;6273601;22;20410;-58
2023/02/04 11:12:46;;;;;;;3.23;1.07;;;8.00;99.90;;;;;;6273722;22;20368;-59
2023/02/04 11:15:53;;;;;;;1.80;1.23;;;8.20;99.90;;;;;;6273590;22;20442;-56
2023/02/04 11:18:30;;;;;;;1.40;1.00;;;8.70;99.90;;;;;;6211529;22;20394;-54
2023/02/04 11:20:59;;;;;;;2.67;1.17;;;8.50;99.90;;;;;;6274006;22;20414;-53
2023/02/04 11:23:36;;;;;;;3.47;1.07;;;8.30;99.90;;;;;;6273816;22;20382;-53
2023/02/04 11:26:12;;;;;;;2.40;0.90;;;7.80;99.90;;;;;;6273736;22;20445;-55
2023/02/04 11:28:54;;;;;;;3.93;0.90;;;7.50;99.90;;;;;;6273824;22;20363;-53
2023/02/04 11:31:42;;;;;;;3.80;1.47;;;7.40;99.90;;;;;;6273661;22;20403;-54
2023/02/04 11:34:23;;;;;;;1.90;1.27;;;7.10;99.90;;;;;;6273802;22;20419;-51
2023/02/04 11:37:01;;;;;;;3.17;1.33;;;6.90;99.90;;;;;;6273846;22;20406;-55
2023/02/04 11:39:34;;;;;;;2.50;0.97;;;6.60;99.90;;;;;;6273741;22;20368;-54
2023/02/04 11:42:03;;;;;;;1.90;1.20;;;6.40;99.90;;;;;;6273725;22;20387;-56
2023/02/04 11:44:30;;;;;;;2.00;1.10;;;6.10;99.90;;;;;;6273604;22;20386;-52
2023/02/04 11:46:59;;;;;;;4.10;0.87;;;6.10;99.90;;;;;;6273654;22;20395;-56
2023/02/04 11:49:28;;;;;;;1.73;1.43;;;6.20;99.90;;;;;;6273660;22;20458;-54
2023/02/04 11:52:07;;;;;;;1.87;1.17;;;6.20;99.90;;;;;;6273681;22;20385;-58
2023/02/04 11:54:34;;;;;;;2.03;0.90;;;6.20;99.90;;;;;;6273578;22;20522;-56
2023/02/04 11:57:03;;;;;;;1.83;1.03;;;6.10;99.90;;;;;;6273600;22;20476;-56
2023/02/04 11:59:30;;;;;;;3.70;2.37;;;6.10;99.90;;;;;;6273637;22;20387;-55
2023/02/04 12:02:04;;;;;;;7.63;1.13;;;6.00;99.90;;;;;;6273538;22;20399;-55
2023/02/04 12:04:36;;;;;;;2.57;1.00;;;5.90;99.90;;;;;;6273575;22;20374;-54
2023/02/04 12:07:04;;;;;;;2.47;1.00;;;5.90;99.90;;;;;;6273433;22;20411;-58
2023/02/04 12:09:32;;;;;;;1.10;0.70;;;5.80;99.90;;;;;;6273591;22;20440;-56
2023/02/04 12:12:00;;;;;;;2.40;1.23;;;5.80;99.90;;;;;;6273562;22;20399;-55
2023/02/04 12:14:35;;;;;;;1.93;1.20;;;5.80;99.90;;;;;;6275466;22;20418;-55
2023/02/04 12:17:12;;;;;;;1.53;1.00;;;5.70;99.90;;;;;;6275392;22;20418;-55
2023/02/04 12:19:39;;;;;;;2.80;1.70;;;5.70;99.90;;;;;;6275594;22;20367;-57
2023/02/04 12:22:09;;;;;;;3.63;0.97;;;5.70;99.90;;;;;;6275571;22;20382;-56
2023/02/04 12:24:36;;;;;;;2.23;0.90;;;5.80;99.90;;;;;;6275208;22;20383;-56
2023/02/04 12:27:05;;;;;;;2.47;0.77;;;6.00;99.90;;;;;;6275282;22;20386;-53
2023/02/04 12:29:34;;;;;;;1.40;1.00;;;6.10;99.90;;;;;;6275296;22;20418;-52
2023/02/04 12:32:00;;;;;;;5.53;1.13;;;6.20;99.90;;;;;;6275009;22;20427;-56
2023/02/04 12:34:29;;;;;;;1.37;0.70;;;6.20;99.90;;;;;;6275077;22;20440;-51
2023/02/04 12:36:59;;;;;;;0.90;0.70;;;6.20;99.90;;;;;;6275159;22;20391;-57
2023/02/04 12:39:28;;;;;;;1.73;0.97;;;6.10;99.90;;;;;;6275108;22;20386;-55
2023/02/04 12:41:58;;;;;;;2.13;1.47;;;6.00;99.90;;;;;;6275086;22;20418;-54
2023/02/04 12:44:24;;;;;;;1.23;0.90;;;6.00;99.90;;;;;;6275185;22;20414;-56
2023/02/04 12:46:56;;;;;;;3.17;1.07;;;6.00;99.90;;;;;;6275291;22;20395;-54
2023/02/04 12:49:23;;;;;;;2.27;0.80;;;6.00;99.90;;;;;;6275237;22;20379;-57
2023/02/04 12:51:51;;;;;;;1.57;0.70;;;5.90;99.90;;;;;;6275016;22;20423;-58
2023/02/04 12:54:17;;;;;;;1.10;1.00;;;5.80;99.90;;;;;;6275072;22;20442;-52
2023/02/04 12:56:44;;;;;;;4.03;1.13;;;5.80;99.90;;;;;;6275060;22;20399;-58
2023/02/04 12:59:11;;;;;;;1.60;1.07;;;5.70;99.90;;;;;;6274994;22;20407;-60
2023/02/04 13:01:38;;;;;;;1.60;1.10;;;5.70;99.90;;;;;;6274900;22;20442;-52
2023/02/04 13:04:06;;;;;;;2.20;1.10;;;5.80;99.90;;;;;;6275143;22;20375;-52